sensor_id;sensor_type;location;lat;lon;timestamp;pressure;altitude;pressure_sealevel;temperature;humidity
36138;BME280;67787;50.074;21.904;2023-02-12T00:01:38;100056.92;;;1.98;47.47
36138;BME280;67787;50.074;21.904;2023-02-12T00:04:06;100059.48;;;2.00;51.54
36138;BME280;67787;50.074;21.904;2023-02-12T00:06:34;100060.48;;;2.02;52.10
36138;BME280;67787;50.074;21.904;2023-02-12T00:09:02;100055.55;;;2.04;49.05
36138;BME280;67787;50.074;21.904;2023-02-12T00:11:30;100065.48;;;2.06;52.02
36138;BME280;67787;50.074;21.904;2023-02-12T00:13:57;100068.06;;;2.08;50.28
36138;BME280;67787;50.074;21.904;2023-02-12T00:16:27;100077.81;;;2.10;50.68
36138;BME280;67787;50.074;21.904;2023-02-12T00:18:56;100079.34;;;2.13;52.06
36138;BME280;67787;50.074;21.904;2023-02-12T00:21:25;100080.00;;;2.15;53.65
36138;BME280;67787;50.074;21.904;2023-02-12T00:23:53;100074.52;;;2.17;53.49
36138;BME280;67787;50.074;21.904;2023-02-12T00:26:22;100075.19;;;2.19;54.70
36138;BME280;67787;50.074;21.904;2023-02-12T00:28:50;100077.23;;;2.21;53.65
36138;BME280;67787;50.074;21.904;2023-02-12T00:31:27;100079.13;;;2.22;54.95
36138;BME280;67787;50.074;21.904;2023-02-12T00:33:56;100078.09;;;2.22;55.92
36138;BME280;67787;50.074;21.904;2023-02-12T00:36:27;100082.46;;;2.22;54.78
36138;BME280;67787;50.074;21.904;2023-02-12T00:38:57;100095.40;;;2.23;54.35
36138;BME280;67787;50.074;21.904;2023-02-12T00:41:25;100098.66;;;2.25;57.99
36138;BME280;67787;50.074;21.904;2023-02-12T00:43:53;100101.09;;;2.27;59.83
36138;BME280;67787;50.074;21.904;2023-02-12T00:46:21;100107.21;;;2.27;57.12
36138;BME280;67787;50.074;21.904;2023-02-12T00:48:50;100110.52;;;2.29;58.26
36138;BME280;67787;50.074;21.904;2023-02-12T00:51:18;100111.70;;;2.30;56.69
36138;BME280;67787;50.074;21.904;2023-02-12T00:53:46;100113.81;;;2.29;57.12
36138;BME280;67787;50.074;21.904;2023-02-12T00:56:14;100121.47;;;2.31;60.34
36138;BME280;67787;50.074;21.904;2023-02-12T00:58:42;100119.92;;;2.30;56.83
36138;BME280;67787;50.074;21.904;2023-02-12T01:01:10;100125.73;;;2.29;54.32
36138;BME280;67787;50.074;21.904;2023-02-12T01:03:38;100129.91;;;2.29;59.44
36138;BME280;67787;50.074;21.904;2023-02-12T01:06:06;100128.67;;;2.29;55.44
36138;BME280;67787;50.074;21.904;2023-02-12T01:08:34;100120.98;;;2.29;58.50
36138;BME280;67787;50.074;21.904;2023-02-12T01:11:04;100126.61;;;2.28;56.78
36138;BME280;67787;50.074;21.904;2023-02-12T01:13:33;100126.27;;;2.28;57.19
36138;BME280;67787;50.074;21.904;2023-02-12T01:16:13;100123.85;;;2.26;57.26
36138;BME280;67787;50.074;21.904;2023-02-12T01:18:42;100123.02;;;2.24;54.80
36138;BME280;67787;50.074;21.904;2023-02-12T01:21:15;100129.30;;;2.25;57.84
36138;BME280;67787;50.074;21.904;2023-02-12T01:23:45;100135.09;;;2.24;56.38
36138;BME280;67787;50.074;21.904;2023-02-12T01:26:15;100145.26;;;2.24;55.90
36138;BME280;67787;50.074;21.904;2023-02-12T01:28:49;100148.39;;;2.25;56.92
36138;BME280;67787;50.074;21.904;2023-02-12T01:31:20;100156.42;;;2.25;56.78
36138;BME280;67787;50.074;21.904;2023-02-12T01:33:51;100161.83;;;2.26;57.11
36138;BME280;67787;50.074;21.904;2023-02-12T01:36:20;100166.21;;;2.26;54.99
36138;BME280;67787;50.074;21.904;2023-02-12T01:38:49;100169.91;;;2.25;53.87
36138;BME280;67787;50.074;21.904;2023-02-12T01:41:23;100165.56;;;2.24;54.26
36138;BME280;67787;50.074;21.904;2023-02-12T01:46:39;100161.74;;;2.22;53.36
36138;BME280;67787;50.074;21.904;2023-02-12T01:49:13;100163.88;;;2.21;53.96
36138;BME280;67787;50.074;21.904;2023-02-12T01:51:43;100167.22;;;2.20;53.32
36138;BME280;67787;50.074;21.904;2023-02-12T01:54:14;100169.51;;;2.19;55.92
36138;BME280;67787;50.074;21.904;2023-02-12T01:56:44;100166.18;;;2.19;53.78
36138;BME280;67787;50.074;21.904;2023-02-12T01:59:12;100166.56;;;2.17;54.37
36138;BME280;67787;50.074;21.904;2023-02-12T02:01:40;100169.71;;;2.17;54.90
36138;BME280;67787;50.074;21.904;2023-02-12T02:04:15;100164.30;;;2.17;55.81
36138;BME280;67787;50.074;21.904;2023-02-12T02:07:01;100165.02;;;2.17;54.58
36138;BME280;67787;50.074;21.904;2023-02-12T02:09:33;100168.19;;;2.15;53.40
36138;BME280;67787;50.074;21.904;2023-02-12T02:12:03;100178.14;;;2.17;54.43
36138;BME280;67787;50.074;21.904;2023-02-12T02:14:51;100185.98;;;2.17;54.01
36138;BME280;67787;50.074;21.904;2023-02-12T02:20:56;100210.65;;;2.18;55.75
36138;BME280;67787;50.074;21.904;2023-02-12T02:29:37;100214.55;;;2.15;54.11
36138;BME280;67787;50.074;21.904;2023-02-12T02:32:26;100216.69;;;2.14;55.10
36138;BME280;67787;50.074;21.904;2023-02-12T02:35:23;100226.16;;;2.12;53.36
36138;BME280;67787;50.074;21.904;2023-02-12T02:38:20;100226.53;;;2.12;55.41
36138;BME280;67787;50.074;21.904;2023-02-12T02:40:56;100232.80;;;2.13;53.76
36138;BME280;67787;50.074;21.904;2023-02-12T02:43:34;100237.01;;;2.13;55.87
36138;BME280;67787;50.074;21.904;2023-02-12T02:46:10;100240.17;;;2.12;54.64
36138;BME280;67787;50.074;21.904;2023-02-12T02:48:45;100243.34;;;2.11;55.55
36138;BME280;67787;50.074;21.904;2023-02-12T02:51:19;100245.61;;;2.12;56.27
36138;BME280;67787;50.074;21.904;2023-02-12T02:54:08;100251.39;;;2.11;55.88
36138;BME280;67787;50.074;21.904;2023-02-12T02:56:40;100256.09;;;2.12;55.64
36138;BME280;67787;50.074;21.904;2023-02-12T02:59:17;100260.66;;;2.11;54.92
36138;BME280;67787;50.074;21.904;2023-02-12T03:01:55;100263.11;;;2.11;55.74
36138;BME280;67787;50.074;21.904;2023-02-12T03:04:31;100272.75;;;2.11;56.99
36138;BME280;67787;50.074;21.904;2023-02-12T03:07:10;100282.02;;;2.11;56.06
36138;BME280;67787;50.074;21.904;2023-02-12T03:09:47;100290.92;;;2.12;54.10
36138;BME280;67787;50.074;21.904;2023-02-12T03:12:32;100294.77;;;2.11;53.56
36138;BME280;67787;50.074;21.904;2023-02-12T03:15:07;100311.02;;;2.14;54.01
36138;BME280;67787;50.074;21.904;2023-02-12T03:17:47;100317.13;;;2.14;53.19
36138;BME280;67787;50.074;21.904;2023-02-12T03:20:19;100319.02;;;2.16;53.33
36138;BME280;67787;50.074;21.904;2023-02-12T03:22:56;100317.44;;;2.17;52.90
36138;BME280;67787;50.074;21.904;2023-02-12T03:25:37;100320.58;;;2.17;53.15
36138;BME280;67787;50.074;21.904;2023-02-12T03:28:18;100320.59;;;2.17;53.00
36138;BME280;67787;50.074;21.904;2023-02-12T03:30:48;100329.34;;;2.17;52.75
36138;BME280;67787;50.074;21.904;2023-02-12T03:33:50;100337.94;;;2.16;52.70
36138;BME280;67787;50.074;21.904;2023-02-12T03:39:29;100353.21;;;2.12;53.58
36138;BME280;67787;50.074;21.904;2023-02-12T03:47:32;100377.70;;;2.13;53.15
36138;BME280;67787;50.074;21.904;2023-02-12T03:50:41;100384.16;;;2.14;53.03
36138;BME280;67787;50.074;21.904;2023-02-12T03:53:05;100412.30;;;2.16;53.71
36138;BME280;67787;50.074;21.904;2023-02-12T03:55:35;100426.41;;;2.09;54.74
36138;BME280;67787;50.074;21.904;2023-02-12T03:58:08;100432.45;;;1.93;55.72
36138;BME280;67787;50.074;21.904;2023-02-12T04:00:38;100435.64;;;1.77;54.69
36138;BME280;67787;50.074;21.904;2023-02-12T04:03:06;100439.11;;;1.67;55.02
36138;BME280;67787;50.074;21.904;2023-02-12T04:05:34;100447.46;;;1.58;55.53
36138;BME280;67787;50.074;21.904;2023-02-12T04:08:05;100448.44;;;1.48;55.87
36138;BME280;67787;50.074;21.904;2023-02-12T04:11:17;100450.04;;;1.34;54.98
36138;BME280;67787;50.074;21.904;2023-02-12T04:19:00;100473.16;;;1.12;55.14
36138;BME280;67787;50.074;21.904;2023-02-12T04:21:58;100485.41;;;1.11;54.69
36138;BME280;67787;50.074;21.904;2023-02-12T04:27:25;100493.14;;;1.08;54.96
36138;BME280;67787;50.074;21.904;2023-02-12T04:30:11;100499.61;;;1.07;55.42
36138;BME280;67787;50.074;21.904;2023-02-12T04:33:04;100509.77;;;1.03;55.51
36138;BME280;67787;50.074;21.904;2023-02-12T04:35:49;100523.25;;;1.01;55.58
36138;BME280;67787;50.074;21.904;2023-02-12T04:40:51;100526.10;;;0.96;55.61
36138;BME280;67787;50.074;21.904;2023-02-12T04:43:34;100529.80;;;0.94;55.33
36138;BME280;67787;50.074;21.904;2023-02-12T04:46:06;100546.06;;;0.92;55.58
36138;BME280;67787;50.074;21.904;2023-02-12T04:48:47;100548.70;;;0.89;55.63
36138;BME280;67787;50.074;21.904;2023-02-12T04:51:17;100541.73;;;0.87;55.20
36138;BME280;67787;50.074;21.904;2023-02-12T04:53:45;100554.48;;;0.86;55.31
36138;BME280;67787;50.074;21.904;2023-02-12T04:56:14;100558.01;;;0.83;55.15
36138;BME280;67787;50.074;21.904;2023-02-12T04:58:42;100545.45;;;0.81;55.29
36138;BME280;67787;50.074;21.904;2023-02-12T05:01:11;100551.94;;;0.79;55.16
36138;BME280;67787;50.074;21.904;2023-02-12T05:03:39;100570.46;;;0.78;55.17
36138;BME280;67787;50.074;21.904;2023-02-12T05:06:08;100561.04;;;0.77;55.19
36138;BME280;67787;50.074;21.904;2023-02-12T05:08:35;100569.07;;;0.77;55.04
36138;BME280;67787;50.074;21.904;2023-02-12T05:11:08;100572.73;;;0.77;55.21
36138;BME280;67787;50.074;21.904;2023-02-12T05:13:37;100569.25;;;0.75;55.29
36138;BME280;67787;50.074;21.904;2023-02-12T05:16:07;100573.09;;;0.74;55.46
36138;BME280;67787;50.074;21.904;2023-02-12T05:18:35;100575.02;;;0.73;54.91
36138;BME280;67787;50.074;21.904;2023-02-12T05:21:04;100587.60;;;0.73;55.21
36138;BME280;67787;50.074;21.904;2023-02-12T05:23:35;100590.41;;;0.72;54.90
36138;BME280;67787;50.074;21.904;2023-02-12T05:26:06;100600.90;;;0.69;55.30
36138;BME280;67787;50.074;21.904;2023-02-12T05:28:35;100604.23;;;0.68;55.15
36138;BME280;67787;50.074;21.904;2023-02-12T05:31:06;100612.97;;;0.66;55.35
36138;BME280;67787;50.074;21.904;2023-02-12T05:33:35;100620.14;;;0.63;55.28
36138;BME280;67787;50.074;21.904;2023-02-12T05:36:08;100619.48;;;0.61;55.26
36138;BME280;67787;50.074;21.904;2023-02-12T05:38:37;100625.08;;;0.58;55.16
36138;BME280;67787;50.074;21.904;2023-02-12T05:41:14;100632.06;;;0.56;55.24
36138;BME280;67787;50.074;21.904;2023-02-12T05:43:43;100642.55;;;0.54;55.52
36138;BME280;67787;50.074;21.904;2023-02-12T05:46:14;100642.39;;;0.52;55.30
36138;BME280;67787;50.074;21.904;2023-02-12T05:48:42;100652.00;;;0.51;56.16
36138;BME280;67787;50.074;21.904;2023-02-12T05:51:14;100654.98;;;0.48;55.60
36138;BME280;67787;50.074;21.904;2023-02-12T05:53:42;100669.29;;;0.48;55.41
36138;BME280;67787;50.074;21.904;2023-02-12T05:56:14;100675.23;;;0.48;55.72
36138;BME280;67787;50.074;21.904;2023-02-12T05:58:46;100681.86;;;0.48;55.81
36138;BME280;67787;50.074;21.904;2023-02-12T06:01:21;100692.86;;;0.48;55.91
36138;BME280;67787;50.074;21.904;2023-02-12T06:03:49;100698.63;;;0.47;55.86
36138;BME280;67787;50.074;21.904;2023-02-12T06:06:17;100698.98;;;0.45;55.98
36138;BME280;67787;50.074;21.904;2023-02-12T06:08:48;100701.95;;;0.44;55.98
36138;BME280;67787;50.074;21.904;2023-02-12T06:11:18;100707.73;;;0.43;56.31
36138;BME280;67787;50.074;21.904;2023-02-12T06:13:47;100709.11;;;0.41;55.78
36138;BME280;67787;50.074;21.904;2023-02-12T06:16:21;100715.05;;;0.41;55.88
36138;BME280;67787;50.074;21.904;2023-02-12T06:18:51;100722.73;;;0.42;56.18
36138;BME280;67787;50.074;21.904;2023-02-12T06:21:22;100723.60;;;0.42;56.36
36138;BME280;67787;50.074;21.904;2023-02-12T06:23:51;100732.33;;;0.42;56.12
36138;BME280;67787;50.074;21.904;2023-02-12T06:26:20;100741.40;;;0.43;56.08
36138;BME280;67787;50.074;21.904;2023-02-12T06:28:48;100752.40;;;0.43;56.18
36138;BME280;67787;50.074;21.904;2023-02-12T06:31:19;100756.94;;;0.45;56.12
36138;BME280;67787;50.074;21.904;2023-02-12T06:33:49;100761.45;;;0.48;56.22
36138;BME280;67787;50.074;21.904;2023-02-12T06:36:18;100762.15;;;0.50;56.21
36138;BME280;67787;50.074;21.904;2023-02-12T06:38:46;100762.66;;;0.53;56.09
36138;BME280;67787;50.074;21.904;2023-02-12T06:41:15;100763.53;;;0.55;56.42
36138;BME280;67787;50.074;21.904;2023-02-12T06:43:43;100776.45;;;0.54;56.37
36138;BME280;67787;50.074;21.904;2023-02-12T06:46:11;100775.41;;;0.53;56.26
36138;BME280;67787;50.074;21.904;2023-02-12T06:48:40;100787.80;;;0.54;56.52
36138;BME280;67787;50.074;21.904;2023-02-12T06:51:11;100793.55;;;0.55;56.21
36138;BME280;67787;50.074;21.904;2023-02-12T06:53:39;100790.92;;;0.58;56.27
36138;BME280;67787;50.074;21.904;2023-02-12T06:56:09;100791.61;;;0.62;56.34
36138;BME280;67787;50.074;21.904;2023-02-12T06:58:40;100799.10;;;0.63;56.49
36138;BME280;67787;50.074;21.904;2023-02-12T07:01:19;100802.24;;;0.64;56.46
36138;BME280;67787;50.074;21.904;2023-02-12T07:03:54;100794.55;;;0.66;56.43
36138;BME280;67787;50.074;21.904;2023-02-12T07:06:23;100802.58;;;0.68;56.45
36138;BME280;67787;50.074;21.904;2023-02-12T07:08:53;100808.34;;;0.68;56.35
36138;BME280;67787;50.074;21.904;2023-02-12T07:11:27;100811.30;;;0.69;56.31
36138;BME280;67787;50.074;21.904;2023-02-12T07:13:56;100817.08;;;0.70;56.65
36138;BME280;67787;50.074;21.904;2023-02-12T07:16:25;100822.13;;;0.71;56.54
36138;BME280;67787;50.074;21.904;2023-02-12T07:18:54;100822.11;;;0.74;56.35
36138;BME280;67787;50.074;21.904;2023-02-12T07:21:22;100827.88;;;0.77;56.28
36138;BME280;67787;50.074;21.904;2023-02-12T07:23:51;100827.00;;;0.77;56.31
36138;BME280;67787;50.074;21.904;2023-02-12T07:26:20;100825.08;;;0.79;56.33
36138;BME280;67787;50.074;21.904;2023-02-12T07:28:49;100821.21;;;0.82;56.38
36138;BME280;67787;50.074;21.904;2023-02-12T07:31:21;100821.70;;;0.87;56.50
36138;BME280;67787;50.074;21.904;2023-02-12T07:33:55;100823.59;;;0.94;56.55
36138;BME280;67787;50.074;21.904;2023-02-12T07:36:25;100822.02;;;0.97;56.28
36138;BME280;67787;50.074;21.904;2023-02-12T07:38:54;100823.06;;;0.97;56.33
36138;BME280;67787;50.074;21.904;2023-02-12T07:41:27;100825.52;;;0.99;56.66
36138;BME280;67787;50.074;21.904;2023-02-12T07:44:01;100823.92;;;1.00;56.72
36138;BME280;67787;50.074;21.904;2023-02-12T07:46:36;100822.85;;;1.02;56.41
36138;BME280;67787;50.074;21.904;2023-02-12T07:49:06;100826.52;;;1.04;56.51
36138;BME280;67787;50.074;21.904;2023-02-12T07:51:36;100831.22;;;1.08;56.58
36138;BME280;67787;50.074;21.904;2023-02-12T07:54:04;100834.71;;;1.10;56.47
36138;BME280;67787;50.074;21.904;2023-02-12T07:56:34;100832.41;;;1.13;56.43
36138;BME280;67787;50.074;21.904;2023-02-12T07:59:06;100833.09;;;1.17;56.39
36138;BME280;67787;50.074;21.904;2023-02-12T08:01:37;100836.93;;;1.20;56.27
36138;BME280;67787;50.074;21.904;2023-02-12T08:04:10;100837.64;;;1.18;56.39
36138;BME280;67787;50.074;21.904;2023-02-12T08:06:42;100840.26;;;1.18;56.46
36138;BME280;67787;50.074;21.904;2023-02-12T08:09:13;100844.28;;;1.18;56.33
36138;BME280;67787;50.074;21.904;2023-02-12T08:11:42;100849.50;;;1.21;56.49
36138;BME280;67787;50.074;21.904;2023-02-12T08:14:12;100854.71;;;1.26;56.42
36138;BME280;67787;50.074;21.904;2023-02-12T08:16:42;100860.64;;;1.28;56.59
36138;BME280;67787;50.074;21.904;2023-02-12T08:19:11;100857.31;;;1.29;56.56
36138;BME280;67787;50.074;21.904;2023-02-12T08:21:49;100853.83;;;1.28;56.46
36138;BME280;67787;50.074;21.904;2023-02-12T08:24:18;100854.15;;;1.32;56.59
36138;BME280;67787;50.074;21.904;2023-02-12T08:26:46;100859.91;;;1.34;56.55
36138;BME280;67787;50.074;21.904;2023-02-12T08:29:18;100863.21;;;1.38;56.47
36138;BME280;67787;50.074;21.904;2023-02-12T08:31:48;100867.02;;;1.43;56.48
36138;BME280;67787;50.074;21.904;2023-02-12T08:34:28;100873.81;;;1.48;56.43
36138;BME280;67787;50.074;21.904;2023-02-12T08:36:57;100878.68;;;1.53;56.39
36138;BME280;67787;50.074;21.904;2023-02-12T08:39:27;100875.34;;;1.55;56.38
36138;BME280;67787;50.074;21.904;2023-02-12T08:41:56;100879.34;;;1.59;56.39
36138;BME280;67787;50.074;21.904;2023-02-12T08:44:25;100877.21;;;1.63;56.51
36138;BME280;67787;50.074;21.904;2023-02-12T08:46:53;100883.48;;;1.64;56.53
36138;BME280;67787;50.074;21.904;2023-02-12T08:49:25;100882.43;;;1.68;56.53
36138;BME280;67787;50.074;21.904;2023-02-12T08:51:55;100884.86;;;1.70;56.88
36138;BME280;67787;50.074;21.904;2023-02-12T08:54:26;100888.23;;;1.63;56.48
36138;BME280;67787;50.074;21.904;2023-02-12T08:56:56;100888.08;;;1.61;56.47
36138;BME280;67787;50.074;21.904;2023-02-12T08:59:25;100895.39;;;1.65;56.42
36138;BME280;67787;50.074;21.904;2023-02-12T09:01:53;100896.27;;;1.63;56.45
36138;BME280;67787;50.074;21.904;2023-02-12T09:04:24;100897.50;;;1.63;56.75
36138;BME280;67787;50.074;21.904;2023-02-12T09:06:52;100896.66;;;1.60;56.55
36138;BME280;67787;50.074;21.904;2023-02-12T09:09:21;100905.36;;;1.63;56.20
36138;BME280;67787;50.074;21.904;2023-02-12T09:11:49;100912.33;;;1.70;56.56
36138;BME280;67787;50.074;21.904;2023-02-12T09:14:18;100915.27;;;1.75;56.62
36138;BME280;67787;50.074;21.904;2023-02-12T09:16:51;100916.11;;;1.81;56.51
36138;BME280;67787;50.074;21.904;2023-02-12T09:19:20;100918.90;;;1.82;56.40
36138;BME280;67787;50.074;21.904;2023-02-12T09:21:53;100920.75;;;1.90;56.43
36138;BME280;67787;50.074;21.904;2023-02-12T09:24:24;100926.49;;;1.97;56.55
36138;BME280;67787;50.074;21.904;2023-02-12T09:26:55;100927.49;;;2.03;56.50
36138;BME280;67787;50.074;21.904;2023-02-12T09:29:23;100931.30;;;2.08;56.52
36138;BME280;67787;50.074;21.904;2023-02-12T09:31:51;100937.39;;;2.12;56.32
36138;BME280;67787;50.074;21.904;2023-02-12T09:34:19;100942.63;;;2.15;56.34
36138;BME280;67787;50.074;21.904;2023-02-12T09:36:47;100938.62;;;2.14;56.34
36138;BME280;67787;50.074;21.904;2023-02-12T09:39:15;100932.27;;;2.18;56.23
36138;BME280;67787;50.074;21.904;2023-02-12T09:45:16;100939.69;;;2.33;56.41
36138;BME280;67787;50.074;21.904;2023-02-12T09:48:03;100948.95;;;2.34;56.60
36138;BME280;67787;50.074;21.904;2023-02-12T09:50:49;100955.40;;;2.37;56.30
36138;BME280;67787;50.074;21.904;2023-02-12T09:53:22;100951.02;;;2.38;56.42
36138;BME280;67787;50.074;21.904;2023-02-12T09:55:51;100945.91;;;2.43;56.32
36138;BME280;67787;50.074;21.904;2023-02-12T10:00:51;100943.95;;;2.46;56.00
36138;BME280;67787;50.074;21.904;2023-02-12T10:03:19;100948.46;;;2.50;55.91
36138;BME280;67787;50.074;21.904;2023-02-12T10:06:04;100951.55;;;2.56;56.30
36138;BME280;67787;50.074;21.904;2023-02-12T10:15:08;100946.48;;;2.55;56.08
36138;BME280;67787;50.074;21.904;2023-02-12T10:25:57;100956.30;;;2.34;56.28
36138;BME280;67787;50.074;21.904;2023-02-12T10:28:34;100960.34;;;2.34;56.39
36138;BME280;67787;50.074;21.904;2023-02-12T10:31:12;100964.52;;;2.34;56.23
36138;BME280;67787;50.074;21.904;2023-02-12T10:33:47;100965.79;;;2.31;56.25
36138;BME280;67787;50.074;21.904;2023-02-12T10:36:28;100973.30;;;2.33;55.77
36138;BME280;67787;50.074;21.904;2023-02-12T10:39:11;100974.07;;;2.45;55.97
36138;BME280;67787;50.074;21.904;2023-02-12T10:44:14;100980.52;;;2.68;55.79
36138;BME280;67787;50.074;21.904;2023-02-12T10:46:42;100984.84;;;2.74;55.93
36138;BME280;67787;50.074;21.904;2023-02-12T10:49:14;100983.62;;;2.74;55.78
36138;BME280;67787;50.074;21.904;2023-02-12T10:51:53;100978.72;;;2.74;55.76
36138;BME280;67787;50.074;21.904;2023-02-12T10:54:44;100982.58;;;2.73;55.66
36138;BME280;67787;50.074;21.904;2023-02-12T10:57:14;100983.96;;;2.75;55.74
36138;BME280;67787;50.074;21.904;2023-02-12T10:59:46;100983.98;;;2.74;55.73
36138;BME280;67787;50.074;21.904;2023-02-12T11:04:45;100980.83;;;2.72;55.44
36138;BME280;67787;50.074;21.904;2023-02-12T11:07:14;100978.30;;;2.80;55.87
36138;BME280;67787;50.074;21.904;2023-02-12T11:09:48;100984.98;;;2.97;55.86
36138;BME280;67787;50.074;21.904;2023-02-12T11:12:34;100988.89;;;3.07;55.96
36138;BME280;67787;50.074;21.904;2023-02-12T11:15:14;100985.48;;;3.16;55.91
36138;BME280;67787;50.074;21.904;2023-02-12T11:17:53;100983.09;;;3.24;55.99
36138;BME280;67787;50.074;21.904;2023-02-12T11:26:04;100988.99;;;3.13;55.73
36138;BME280;67787;50.074;21.904;2023-02-12T11:28:35;100988.09;;;3.17;55.48
36138;BME280;67787;50.074;21.904;2023-02-12T11:31:21;100983.73;;;3.14;55.57
36138;BME280;67787;50.074;21.904;2023-02-12T11:36:41;100975.66;;;3.15;55.52
36138;BME280;67787;50.074;21.904;2023-02-12T11:39:20;100974.00;;;3.23;55.52
36138;BME280;67787;50.074;21.904;2023-02-12T11:41:55;100978.03;;;3.23;55.65
36138;BME280;67787;50.074;21.904;2023-02-12T11:44:26;100977.30;;;3.25;55.59
36138;BME280;67787;50.074;21.904;2023-02-12T11:47:00;100969.79;;;3.23;55.46
36138;BME280;67787;50.074;21.904;2023-02-12T11:49:41;100973.52;;;3.18;55.59
36138;BME280;67787;50.074;21.904;2023-02-12T11:52:19;100978.05;;;3.21;55.56
36138;BME280;67787;50.074;21.904;2023-02-12T11:54:48;100987.57;;;3.15;55.55
36138;BME280;67787;50.074;21.904;2023-02-12T11:57:38;100993.32;;;3.03;55.41
36138;BME280;67787;50.074;21.904;2023-02-12T12:00:24;100998.46;;;2.97;55.44
36138;BME280;67787;50.074;21.904;2023-02-12T12:03:20;101000.73;;;2.99;55.32
36138;BME280;67787;50.074;21.904;2023-02-12T12:05:54;101004.39;;;3.00;55.37
36138;BME280;67787;50.074;21.904;2023-02-12T12:11:09;100999.93;;;2.90;55.24
36138;BME280;67787;50.074;21.904;2023-02-12T12:16:38;100995.09;;;2.84;55.54
36138;BME280;67787;50.074;21.904;2023-02-12T12:19:46;101005.67;;;2.77;55.44
36138;BME280;67787;50.074;21.904;2023-02-12T12:25:25;101004.89;;;2.65;55.39
36138;BME280;67787;50.074;21.904;2023-02-12T12:31:24;101001.12;;;2.76;55.26
36138;BME280;67787;50.074;21.904;2023-02-12T12:34:01;100999.70;;;2.77;55.40
36138;BME280;67787;50.074;21.904;2023-02-12T12:42:29;100987.14;;;2.91;55.08
36138;BME280;67787;50.074;21.904;2023-02-12T12:48:05;100991.51;;;2.91;55.26
36138;BME280;67787;50.074;21.904;2023-02-12T12:53:58;100986.72;;;2.97;55.20
36138;BME280;67787;50.074;21.904;2023-02-12T12:56:44;100993.03;;;2.97;55.36
36138;BME280;67787;50.074;21.904;2023-02-12T13:15:40;101005.51;;;2.56;55.48
36138;BME280;67787;50.074;21.904;2023-02-12T13:18:30;101009.55;;;2.55;55.20
36138;BME280;67787;50.074;21.904;2023-02-12T13:23:47;101015.90;;;2.48;55.23
36138;BME280;67787;50.074;21.904;2023-02-12T13:26:24;101005.55;;;2.50;55.14
36138;BME280;67787;50.074;21.904;2023-02-12T13:29:11;101009.92;;;2.51;55.42
36138;BME280;67787;50.074;21.904;2023-02-12T13:31:46;101008.77;;;2.44;55.43
36138;BME280;67787;50.074;21.904;2023-02-12T13:34:17;101005.50;;;2.36;55.41
36138;BME280;67787;50.074;21.904;2023-02-12T13:36:48;101007.85;;;2.25;55.40
36138;BME280;67787;50.074;21.904;2023-02-12T13:39:36;101008.95;;;2.17;55.04
36138;BME280;67787;50.074;21.904;2023-02-12T13:42:18;101014.29;;;2.03;55.18
36138;BME280;67787;50.074;21.904;2023-02-12T13:44:58;101019.77;;;1.94;55.27
36138;BME280;67787;50.074;21.904;2023-02-12T13:50:39;101016.29;;;1.87;54.99
36138;BME280;67787;50.074;21.904;2023-02-12T13:56:19;101023.52;;;1.82;55.09
36138;BME280;67787;50.074;21.904;2023-02-12T13:58:55;101022.11;;;1.83;55.00
36138;BME280;67787;50.074;21.904;2023-02-12T14:01:47;101019.10;;;1.87;55.09
36138;BME280;67787;50.074;21.904;2023-02-12T14:04:25;101015.06;;;1.91;55.32
36138;BME280;67787;50.074;21.904;2023-02-12T14:06:58;101017.66;;;1.94;55.35
36138;BME280;67787;50.074;21.904;2023-02-12T14:09:30;101016.41;;;2.01;55.35
36138;BME280;67787;50.074;21.904;2023-02-12T14:12:04;101016.19;;;2.08;55.27
36138;BME280;67787;50.074;21.904;2023-02-12T14:14:40;101018.24;;;2.13;55.31
36138;BME280;67787;50.074;21.904;2023-02-12T14:23:20;101004.95;;;2.12;55.38
36138;BME280;67787;50.074;21.904;2023-02-12T14:26:08;101006.25;;;2.01;55.11
36138;BME280;67787;50.074;21.904;2023-02-12T14:28:59;101006.87;;;1.84;55.44
36138;BME280;67787;50.074;21.904;2023-02-12T14:41:52;101021.09;;;1.29;55.27
36138;BME280;67787;50.074;21.904;2023-02-12T14:47:13;101029.48;;;1.30;55.51
36138;BME280;67787;50.074;21.904;2023-02-12T14:49:46;101030.88;;;1.32;55.45
36138;BME280;67787;50.074;21.904;2023-02-12T14:52:18;101033.85;;;1.32;55.81
36138;BME280;67787;50.074;21.904;2023-02-12T14:55:01;101037.17;;;1.32;55.45
36138;BME280;67787;50.074;21.904;2023-02-12T14:57:36;101032.28;;;1.32;55.51
36138;BME280;67787;50.074;21.904;2023-02-12T15:11:27;101029.73;;;0.99;55.62
36138;BME280;67787;50.074;21.904;2023-02-12T15:17:11;101033.93;;;0.89;55.64
36138;BME280;67787;50.074;21.904;2023-02-12T15:22:25;101027.84;;;0.76;55.56
36138;BME280;67787;50.074;21.904;2023-02-12T15:25:19;101029.58;;;0.68;55.48
36138;BME280;67787;50.074;21.904;2023-02-12T15:27:54;101029.94;;;0.59;55.63
36138;BME280;67787;50.074;21.904;2023-02-12T15:30:26;101026.27;;;0.50;55.48
36138;BME280;67787;50.074;21.904;2023-02-12T15:32:56;101020.34;;;0.44;55.48
36138;BME280;67787;50.074;21.904;2023-02-12T15:35:28;101014.58;;;0.37;55.32
36138;BME280;67787;50.074;21.904;2023-02-12T15:37:58;101013.17;;;0.30;55.34
36138;BME280;67787;50.074;21.904;2023-02-12T15:40:30;101018.58;;;0.23;55.32
36138;BME280;67787;50.074;21.904;2023-02-12T15:43:14;101021.70;;;0.16;55.41
36138;BME280;67787;50.074;21.904;2023-02-12T15:45:50;101025.70;;;0.08;55.41
36138;BME280;67787;50.074;21.904;2023-02-12T15:48:21;101035.45;;;0.00;55.31
36138;BME280;67787;50.074;21.904;2023-02-12T15:53:40;101028.08;;;-0.15;55.36
36138;BME280;67787;50.074;21.904;2023-02-12T15:56:12;101022.66;;;-0.23;55.54
36138;BME280;67787;50.074;21.904;2023-02-12T15:58:52;101023.16;;;-0.30;55.66